Time;durP1;ratioP1;P1;durP2;ratioP2;P2;SDS_P1;SDS_P2;PMS_P1;PMS_P2;Temp;Humidity;BMP_temperature;BMP_pressure;BME280_temperature;BME280_humidity;BME280_pressure;Samples;Min_cycle;Max_cycle;Signal;HPM_P1;HPM_P2
2023/08/11 00:00:41;;;;;;;13.27;7.85;;;;;;;;;;5016482;28;20124;-70
2023/08/11 00:03:06;;;;;;;12.23;7.28;;;;;;;;;;5018307;28;20191;-69
2023/08/11 00:05:38;;;;;;;13.98;8.60;;;;;;;;;;5016483;28;20044;-71
2023/08/11 00:08:05;;;;;;;12.55;7.70;;;;;;;;;;5017283;28;20041;-71
2023/08/11 00:10:30;;;;;;;10.93;7.30;;;;;;;;;;5014968;28;20057;-70
2023/08/11 00:12:56;;;;;;;16.45;9.75;;;;;;;;;;5016186;28;20132;-72
2023/08/11 00:15:21;;;;;;;20.92;8.77;;;;;;;;;;5014466;28;20042;-71
2023/08/11 00:17:47;;;;;;;13.32;8.40;;;;;;;;;;5016271;28;20070;-71
2023/08/11 00:20:12;;;;;;;13.55;8.10;;;;;;;;;;5014858;28;20093;-70
2023/08/11 00:22:38;;;;;;;10.98;7.28;;;;;;;;;;5014945;28;22314;-70
2023/08/11 00:25:03;;;;;;;11.82;7.05;;;;;;;;;;5014431;28;20124;-68
2023/08/11 00:27:29;;;;;;;12.15;7.18;;;;;;;;;;5013272;28;20067;-68
2023/08/11 00:29:58;;;;;;;11.25;6.70;;;;;;;;;;5012593;28;20578;-67
2023/08/11 00:32:24;;;;;;;11.98;7.15;;;;;;;;;;5029528;28;20128;-67
2023/08/11 00:34:49;;;;;;;15.00;8.82;;;;;;;;;;5015460;28;20074;-67
2023/08/11 00:37:14;;;;;;;15.43;9.30;;;;;;;;;;5013875;28;20099;-67
2023/08/11 00:39:39;;;;;;;13.80;9.00;;;;;;;;;;5016241;28;20041;-67
2023/08/11 00:42:05;;;;;;;14.93;8.88;;;;;;;;;;5015459;28;20041;-65
2023/08/11 00:44:31;;;;;;;15.77;9.18;;;;;;;;;;5029123;28;20028;-68
2023/08/11 00:46:56;;;;;;;11.48;8.13;;;;;;;;;;5030868;28;20033;-67
2023/08/11 00:49:23;;;;;;;11.05;7.70;;;;;;;;;;5016000;28;20037;-67
2023/08/11 00:51:48;;;;;;;14.32;8.02;;;;;;;;;;5030676;28;20056;-67
2023/08/11 00:54:15;;;;;;;13.07;7.75;;;;;;;;;;5050637;28;20056;-65
2023/08/11 00:56:44;;;;;;;13.57;8.70;;;;;;;;;;5018470;28;20049;-67
2023/08/11 00:59:12;;;;;;;13.35;8.57;;;;;;;;;;5018033;28;20080;-67
2023/08/11 01:01:38;;;;;;;16.85;9.50;;;;;;;;;;5020899;28;20489;-66
2023/08/11 01:04:04;;;;;;;14.80;8.85;;;;;;;;;;5020586;28;20118;-68
2023/08/11 01:06:46;;;;;;;15.32;8.68;;;;;;;;;;5051008;28;20513;-67
2023/08/11 01:09:11;;;;;;;;;;;;;;;;;;5014833;28;22181;-68
2023/08/11 01:11:56;;;;;;;19.08;10.13;;;;;;;;;;5017427;28;19935;-67
2023/08/11 01:14:27;;;;;;;13.52;8.70;;;;;;;;;;5017003;28;20434;-67
2023/08/11 01:16:53;;;;;;;14.52;9.10;;;;;;;;;;5047958;28;20060;-67
2023/08/11 01:19:31;;;;;;;13.98;8.68;;;;;;;;;;5016702;28;20040;-65
2023/08/11 01:21:58;;;;;;;10.82;7.72;;;;;;;;;;5018101;28;20044;-70
2023/08/11 01:24:24;;;;;;;11.25;8.13;;;;;;;;;;5033833;28;20037;-68
2023/08/11 01:26:49;;;;;;;12.18;7.30;;;;;;;;;;5006703;28;20040;-69
2023/08/11 01:29:15;;;;;;;10.77;7.25;;;;;;;;;;5022174;28;20051;-67
2023/08/11 01:31:40;;;;;;;13.77;7.78;;;;;;;;;;5018859;28;20114;-67
2023/08/11 01:34:06;;;;;;;11.50;7.45;;;;;;;;;;5017404;28;20527;-65
2023/08/11 01:36:32;;;;;;;12.38;8.48;;;;;;;;;;4995152;28;20033;-68
2023/08/11 01:38:58;;;;;;;13.15;9.63;;;;;;;;;;4995775;28;20040;-66
2023/08/11 01:41:23;;;;;;;11.88;8.93;;;;;;;;;;4997831;28;20037;-68
2023/08/11 01:43:50;;;;;;;14.88;9.05;;;;;;;;;;4998091;28;20189;-68
2023/08/11 01:46:15;;;;;;;15.60;8.57;;;;;;;;;;5015069;28;20743;-67
2023/08/11 01:48:41;;;;;;;13.70;7.82;;;;;;;;;;5016777;28;20052;-68
2023/08/11 01:51:07;;;;;;;12.30;8.35;;;;;;;;;;5015785;28;20063;-68
2023/08/11 01:53:35;;;;;;;12.18;8.00;;;;;;;;;;5018542;28;20041;-68
2023/08/11 01:56:00;;;;;;;13.77;8.35;;;;;;;;;;5049684;28;20658;-67
2023/08/11 01:58:26;;;;;;;14.65;8.32;;;;;;;;;;5017681;28;20043;-67
2023/08/11 02:00:51;;;;;;;13.35;8.35;;;;;;;;;;5047871;28;20037;-67
2023/08/11 02:03:17;;;;;;;16.38;9.10;;;;;;;;;;5015112;28;20033;-68
2023/08/11 02:05:43;;;;;;;13.98;9.55;;;;;;;;;;5019682;28;20028;-67
2023/08/11 02:08:10;;;;;;;15.05;9.02;;;;;;;;;;5016699;28;20030;-67
2023/08/11 02:10:36;;;;;;;13.38;9.68;;;;;;;;;;5020035;28;20470;-67
2023/08/11 02:13:01;;;;;;;14.50;8.90;;;;;;;;;;5020339;28;20029;-68
2023/08/11 02:15:27;;;;;;;15.85;8.50;;;;;;;;;;5017657;28;20047;-68
2023/08/11 02:17:52;;;;;;;13.68;8.73;;;;;;;;;;5030214;28;20060;-68
2023/08/11 02:20:21;;;;;;;;;;;;;;;;;;;;;
2023/08/11 02:22:43;;;;;;;15.70;7.97;;;;;;;;;;5016253;28;20030;-67
2023/08/11 02:25:09;;;;;;;12.68;7.75;;;;;;;;;;5015243;28;20134;-68
2023/08/11 02:27:34;;;;;;;14.60;7.60;;;;;;;;;;5017924;28;20021;-67
2023/08/11 02:30:00;;;;;;;17.15;7.40;;;;;;;;;;5048971;28;20541;-67
2023/08/11 02:32:25;;;;;;;11.57;7.72;;;;;;;;;;5045876;28;20037;-67
2023/08/11 02:34:50;;;;;;;10.48;6.88;;;;;;;;;;5015197;28;20037;-69
2023/08/11 02:37:18;;;;;;;11.73;7.85;;;;;;;;;;5017045;28;20084;-67
2023/08/11 02:39:44;;;;;;;12.52;7.10;;;;;;;;;;5016867;28;20762;-66
2023/08/11 02:42:09;;;;;;;16.33;8.43;;;;;;;;;;5018394;28;20137;-66
2023/08/11 02:44:35;;;;;;;9.82;6.68;;;;;;;;;;5016840;28;20098;-69
2023/08/11 02:47:01;;;;;;;17.17;8.38;;;;;;;;;;5015914;28;20187;-66
2023/08/11 02:49:26;;;;;;;14.45;8.45;;;;;;;;;;5016483;28;20140;-67
2023/08/11 02:51:51;;;;;;;12.88;8.13;;;;;;;;;;5017593;28;20513;-67
2023/08/11 02:54:16;;;;;;;11.93;7.60;;;;;;;;;;5015478;28;20153;-67
2023/08/11 02:56:46;;;;;;;11.02;7.22;;;;;;;;;;5014059;28;20044;-67
2023/08/11 02:59:11;;;;;;;15.13;9.85;;;;;;;;;;5017325;28;20592;-67
2023/08/11 03:01:36;;;;;;;12.75;7.70;;;;;;;;;;5048382;28;20215;-67
2023/08/11 03:04:01;;;;;;;11.90;7.10;;;;;;;;;;5014845;28;22281;-66
2023/08/11 03:06:27;;;;;;;18.55;9.23;;;;;;;;;;5015682;28;20045;-67
2023/08/11 03:08:55;;;;;;;13.40;7.68;;;;;;;;;;5046318;28;20044;-67
2023/08/11 03:11:20;;;;;;;11.82;7.50;;;;;;;;;;5015183;28;20049;-67
2023/08/11 03:13:46;;;;;;;12.85;7.53;;;;;;;;;;5012721;28;20067;-67
2023/08/11 03:16:11;;;;;;;10.88;7.47;;;;;;;;;;5015948;28;20373;-67
2023/08/11 03:18:39;;;;;;;11.55;7.28;;;;;;;;;;5011413;28;20036;-67
2023/08/11 03:21:05;;;;;;;11.75;6.90;;;;;;;;;;5015754;28;20091;-67
2023/08/11 03:23:30;;;;;;;14.02;6.93;;;;;;;;;;5013668;28;21143;-67
2023/08/11 03:25:55;;;;;;;13.98;7.20;;;;;;;;;;5015332;28;20128;-67
2023/08/11 03:28:21;;;;;;;9.80;6.88;;;;;;;;;;5013501;28;20509;-66
2023/08/11 03:30:48;;;;;;;12.85;7.45;;;;;;;;;;5045505;28;20047;-66
2023/08/11 03:33:14;;;;;;;10.68;6.85;;;;;;;;;;5012568;28;20037;-68
2023/08/11 03:35:39;;;;;;;14.70;7.90;;;;;;;;;;5020117;28;20036;-68
2023/08/11 03:38:05;;;;;;;12.40;7.72;;;;;;;;;;5013723;28;20116;-68
2023/08/11 03:40:30;;;;;;;12.02;7.70;;;;;;;;;;5014969;28;20563;-67
2023/08/11 03:42:56;;;;;;;13.27;7.82;;;;;;;;;;4998859;28;20056;-67
2023/08/11 03:45:21;;;;;;;16.55;7.35;;;;;;;;;;5014380;28;20029;-65
2023/08/11 03:47:47;;;;;;;11.73;6.90;;;;;;;;;;5012989;28;20557;-67
2023/08/11 03:50:12;;;;;;;12.23;7.68;;;;;;;;;;5010437;28;20038;-68
2023/08/11 03:52:38;;;;;;;14.68;8.52;;;;;;;;;;5011381;28;20457;-68
2023/08/11 03:55:04;;;;;;;16.80;8.25;;;;;;;;;;5018041;28;20139;-68
2023/08/11 03:57:29;;;;;;;12.40;7.82;;;;;;;;;;5013266;28;20113;-68
2023/08/11 03:59:57;;;;;;;12.75;7.82;;;;;;;;;;5012989;28;20036;-67
2023/08/11 04:02:23;;;;;;;12.77;8.27;;;;;;;;;;5012705;28;20033;-67
2023/08/11 04:04:48;;;;;;;12.00;8.32;;;;;;;;;;5016464;28;20045;-69
2023/08/11 04:07:13;;;;;;;21.63;9.30;;;;;;;;;;5013272;28;20064;-68
2023/08/11 04:09:43;;;;;;;17.00;9.23;;;;;;;;;;5014415;28;20382;-68
2023/08/11 04:12:09;;;;;;;12.38;8.73;;;;;;;;;;5013925;28;20041;-67
2023/08/11 04:14:34;;;;;;;13.88;7.72;;;;;;;;;;5014503;28;20059;-67
2023/08/11 04:16:59;;;;;;;13.60;8.52;;;;;;;;;;5012955;28;20048;-67
2023/08/11 04:19:24;;;;;;;12.77;8.75;;;;;;;;;;5012108;28;20083;-67
2023/08/11 04:21:50;;;;;;;15.27;9.32;;;;;;;;;;5011838;28;20079;-67
2023/08/11 04:24:17;;;;;;;15.20;9.10;;;;;;;;;;5015830;28;20041;-67
2023/08/11 04:26:43;;;;;;;15.80;9.90;;;;;;;;;;5001912;28;20047;-67
2023/08/11 04:29:08;;;;;;;19.67;10.02;;;;;;;;;;5020191;28;20033;-67
2023/08/11 04:31:34;;;;;;;16.02;9.77;;;;;;;;;;5016161;28;20053;-67
2023/08/11 04:33:59;;;;;;;17.45;9.95;;;;;;;;;;5017190;28;20037;-68
2023/08/11 04:36:25;;;;;;;17.35;9.77;;;;;;;;;;5015915;28;20063;-68
2023/08/11 04:38:50;;;;;;;13.45;9.45;;;;;;;;;;5017785;28;20048;-68
2023/08/11 04:41:16;;;;;;;15.90;9.68;;;;;;;;;;5021279;28;20033;-67
2023/08/11 04:43:41;;;;;;;20.10;9.82;;;;;;;;;;5019443;28;20033;-67
2023/08/11 04:46:06;;;;;;;18.70;10.05;;;;;;;;;;5018731;28;20127;-68
2023/08/11 04:48:32;;;;;;;15.63;10.50;;;;;;;;;;5035182;28;20045;-67
2023/08/11 04:50:58;;;;;;;13.55;10.43;;;;;;;;;;5008671;28;20068;-67
2023/08/11 04:53:24;;;;;;;20.10;10.55;;;;;;;;;;5017325;28;20069;-69
2023/08/11 04:55:51;;;;;;;18.65;10.40;;;;;;;;;;5018347;28;20033;-66
2023/08/11 04:58:18;;;;;;;14.20;10.23;;;;;;;;;;5018507;28;20144;-66
2023/08/11 05:00:43;;;;;;;18.27;9.60;;;;;;;;;;5016413;28;20029;-68
2023/08/11 05:03:09;;;;;;;14.75;10.18;;;;;;;;;;5017088;28;20568;-68
2023/08/11 05:05:34;;;;;;;17.02;10.52;;;;;;;;;;5020137;28;20096;-68
2023/08/11 05:07:59;;;;;;;17.58;10.90;;;;;;;;;;5019573;28;20155;-68
2023/08/11 05:10:25;;;;;;;20.15;10.05;;;;;;;;;;5020441;28;20529;-69
2023/08/11 05:12:50;;;;;;;18.60;9.73;;;;;;;;;;5020266;28;20053;-69
2023/08/11 05:15:15;;;;;;;19.50;10.65;;;;;;;;;;5002824;28;20041;-70
2023/08/11 05:17:41;;;;;;;19.60;11.93;;;;;;;;;;5015829;28;20041;-68
2023/08/11 05:20:07;;;;;;;22.08;14.00;;;;;;;;;;5014751;28;20037;-70
2023/08/11 05:22:33;;;;;;;30.33;19.30;;;;;;;;;;5030492;28;20126;-66
2023/08/11 05:24:58;;;;;;;37.15;24.27;;;;;;;;;;5005879;28;20036;-70
2023/08/11 05:27:23;;;;;;;40.55;28.17;;;;;;;;;;5017249;28;20041;-69
2023/08/11 05:29:50;;;;;;;39.22;28.55;;;;;;;;;;5021929;28;20040;-69
2023/08/11 05:32:15;;;;;;;37.75;29.73;;;;;;;;;;5018634;28;20045;-69
2023/08/11 05:34:41;;;;;;;35.88;26.63;;;;;;;;;;5019944;28;20134;-69
2023/08/11 05:37:06;;;;;;;34.50;26.17;;;;;;;;;;5019859;28;20029;-69
2023/08/11 05:39:32;;;;;;;33.25;22.60;;;;;;;;;;5018051;28;20030;-69
2023/08/11 05:41:57;;;;;;;27.35;20.30;;;;;;;;;;5020824;28;20480;-68
2023/08/11 05:44:23;;;;;;;30.98;20.40;;;;;;;;;;5019194;28;20114;-69
2023/08/11 05:46:48;;;;;;;25.27;17.15;;;;;;;;;;5017270;28;20264;-69
2023/08/11 05:49:13;;;;;;;27.15;18.02;;;;;;;;;;5016779;28;20095;-69
2023/08/11 05:51:39;;;;;;;25.05;16.60;;;;;;;;;;5022350;28;20048;-68
2023/08/11 05:54:04;;;;;;;22.95;15.55;;;;;;;;;;5016624;28;20040;-68
2023/08/11 05:56:29;;;;;;;21.73;14.40;;;;;;;;;;5018442;28;20122;-69
2023/08/11 05:58:55;;;;;;;20.95;13.43;;;;;;;;;;5016063;28;20037;-71
2023/08/11 06:01:20;;;;;;;19.15;11.75;;;;;;;;;;5019390;28;20044;-68
2023/08/11 06:03:45;;;;;;;18.63;12.02;;;;;;;;;;5031046;28;22245;-70
2023/08/11 06:06:11;;;;;;;17.73;11.07;;;;;;;;;;5018163;28;20033;-69
2023/08/11 06:08:36;;;;;;;20.35;11.25;;;;;;;;;;5017151;28;20400;-70
2023/08/11 06:11:01;;;;;;;15.75;10.30;;;;;;;;;;5015956;28;20040;-68
2023/08/11 06:13:27;;;;;;;18.05;11.05;;;;;;;;;;5018830;28;20045;-70
2023/08/11 06:15:54;;;;;;;16.58;10.50;;;;;;;;;;5014789;28;20041;-70
2023/08/11 06:18:19;;;;;;;18.48;10.13;;;;;;;;;;5035813;28;20036;-70
2023/08/11 06:20:45;;;;;;;13.93;8.95;;;;;;;;;;5014766;28;20602;-70
2023/08/11 06:23:10;;;;;;;13.32;8.68;;;;;;;;;;5017550;28;20425;-70
2023/08/11 06:25:36;;;;;;;15.55;8.98;;;;;;;;;;4997912;28;20030;-70
2023/08/11 06:28:01;;;;;;;13.80;8.23;;;;;;;;;;5010699;28;20425;-70
2023/08/11 06:30:28;;;;;;;17.58;8.48;;;;;;;;;;5010037;28;20037;-71
2023/08/11 06:32:54;;;;;;;10.43;7.20;;;;;;;;;;5014620;28;22195;-70
2023/08/11 06:35:19;;;;;;;16.02;9.20;;;;;;;;;;5014801;28;20041;-71
2023/08/11 06:37:44;;;;;;;14.68;7.90;;;;;;;;;;5016582;28;20029;-69
2023/08/11 06:40:13;;;;;;;15.45;8.82;;;;;;;;;;5017029;28;20136;-69
2023/08/11 06:42:39;;;;;;;14.55;8.32;;;;;;;;;;5017335;28;22250;-69
2023/08/11 06:45:04;;;;;;;19.60;9.02;;;;;;;;;;5016457;28;20083;-69
2023/08/11 06:47:31;;;;;;;19.60;8.88;;;;;;;;;;5015149;28;20124;-69
2023/08/11 06:49:56;;;;;;;17.50;8.95;;;;;;;;;;5019371;28;20047;-69
2023/08/11 06:52:21;;;;;;;23.80;10.82;;;;;;;;;;5017215;28;20041;-69
2023/08/11 06:54:47;;;;;;;23.70;10.60;;;;;;;;;;5017769;28;20037;-70
2023/08/11 06:57:12;;;;;;;22.38;9.45;;;;;;;;;;5014349;28;20033;-69
2023/08/11 06:59:37;;;;;;;20.02;9.65;;;;;;;;;;5013364;28;20041;-69
2023/08/11 07:02:03;;;;;;;24.45;11.60;;;;;;;;;;5013884;28;20505;-68
2023/08/11 07:04:28;;;;;;;22.95;10.27;;;;;;;;;;5015596;28;20029;-68
2023/08/11 07:06:54;;;;;;;27.85;14.13;;;;;;;;;;5018081;28;20650;-69
2023/08/11 07:09:20;;;;;;;20.23;10.43;;;;;;;;;;5017063;28;20835;-68
2023/08/11 07:11:45;;;;;;;16.02;6.65;;;;;;;;;;5014219;28;20049;-68
2023/08/11 07:14:10;;;;;;;15.27;7.88;;;;;;;;;;5015117;28;20127;-66
2023/08/11 07:16:36;;;;;;;12.25;7.20;;;;;;;;;;5017538;28;20152;-67
2023/08/11 07:19:01;;;;;;;10.23;6.07;;;;;;;;;;5015926;28;20029;-67
2023/08/11 07:21:27;;;;;;;12.38;5.72;;;;;;;;;;5014141;28;20044;-66
2023/08/11 07:23:52;;;;;;;11.77;5.97;;;;;;;;;;5016820;28;20036;-66
2023/08/11 07:26:17;;;;;;;14.95;4.97;;;;;;;;;;5047126;28;20067;-67
2023/08/11 07:28:43;;;;;;;7.20;4.65;;;;;;;;;;5013590;28;20513;-67
2023/08/11 07:31:08;;;;;;;9.70;5.15;;;;;;;;;;5015195;28;20040;-67
2023/08/11 07:33:34;;;;;;;13.65;4.75;;;;;;;;;;5016071;28;20761;-67
2023/08/11 07:35:59;;;;;;;11.55;5.03;;;;;;;;;;5017317;28;20065;-66
2023/08/11 07:38:24;;;;;;;9.57;4.95;;;;;;;;;;5028036;28;20033;-66
2023/08/11 07:40:50;;;;;;;12.98;5.05;;;;;;;;;;5014869;28;20557;-67
2023/08/11 07:43:15;;;;;;;10.40;4.30;;;;;;;;;;5014526;28;20486;-66
2023/08/11 07:45:40;;;;;;;11.52;5.40;;;;;;;;;;5009659;28;20021;-67
2023/08/11 07:48:06;;;;;;;11.02;5.35;;;;;;;;;;5011435;28;20581;-66
2023/08/11 07:50:34;;;;;;;10.77;5.05;;;;;;;;;;5009634;28;20037;-68
2023/08/11 07:53:00;;;;;;;10.73;5.28;;;;;;;;;;5009157;28;20044;-66
2023/08/11 07:55:25;;;;;;;11.25;4.97;;;;;;;;;;5011229;28;20037;-66
2023/08/11 07:57:50;;;;;;;8.73;5.03;;;;;;;;;;5010663;28;20064;-66
2023/08/11 08:00:16;;;;;;;10.75;5.15;;;;;;;;;;5012336;28;20044;-66
2023/08/11 08:02:44;;;;;;;8.40;4.95;;;;;;;;;;5012496;28;21437;-66
2023/08/11 08:05:09;;;;;;;10.32;4.68;;;;;;;;;;5014332;28;20033;-66
2023/08/11 08:07:35;;;;;;;11.57;5.03;;;;;;;;;;5014970;28;20041;-65
2023/08/11 08:10:01;;;;;;;10.50;4.35;;;;;;;;;;5013095;28;20841;-67
2023/08/11 08:12:26;;;;;;;10.25;4.90;;;;;;;;;;5013539;28;20056;-66
2023/08/11 08:14:51;;;;;;;12.02;5.18;;;;;;;;;;5014559;28;20118;-65
2023/08/11 08:17:18;;;;;;;10.02;4.85;;;;;;;;;;5045010;28;20148;-65
2023/08/11 08:19:43;;;;;;;10.68;5.15;;;;;;;;;;5014386;28;20051;-66
2023/08/11 08:22:11;;;;;;;9.05;5.65;;;;;;;;;;5013336;28;20502;-65
2023/08/11 08:24:39;;;;;;;10.48;5.57;;;;;;;;;;5042743;28;20037;-66
2023/08/11 08:27:04;;;;;;;11.05;5.47;;;;;;;;;;5042652;28;20036;-66
2023/08/11 08:29:30;;;;;;;9.85;5.50;;;;;;;;;;5015806;28;20044;-66
2023/08/11 08:31:55;;;;;;;10.80;5.88;;;;;;;;;;5013819;28;20133;-66
2023/08/11 08:34:21;;;;;;;11.00;5.60;;;;;;;;;;5012677;28;20068;-66
2023/08/11 08:36:46;;;;;;;11.40;5.40;;;;;;;;;;5030281;28;20333;-65
2023/08/11 08:39:11;;;;;;;12.73;5.13;;;;;;;;;;5012240;28;22676;-66
2023/08/11 08:41:38;;;;;;;12.98;5.55;;;;;;;;;;5005634;28;20112;-65
2023/08/11 08:44:03;;;;;;;11.85;6.03;;;;;;;;;;5017972;28;20707;-65
2023/08/11 08:46:30;;;;;;;11.25;5.22;;;;;;;;;;5018759;28;20040;-65
2023/08/11 08:49:14;;;;;;;12.25;6.43;;;;;;;;;;5018877;28;20037;-66
2023/08/11 08:51:39;;;;;;;12.15;5.45;;;;;;;;;;5018973;28;20037;-65
2023/08/11 08:54:08;;;;;;;11.35;6.10;;;;;;;;;;5019648;28;20066;-64
2023/08/11 08:56:34;;;;;;;18.77;6.35;;;;;;;;;;5017452;28;20033;-66
2023/08/11 08:58:59;;;;;;;14.02;5.97;;;;;;;;;;5020916;28;20530;-66
2023/08/11 09:01:27;;;;;;;11.48;6.00;;;;;;;;;;5018364;28;20033;-66
2023/08/11 09:03:53;;;;;;;18.00;5.43;;;;;;;;;;5016667;28;20034;-68
2023/08/11 09:06:18;;;;;;;10.20;5.20;;;;;;;;;;5014527;28;20103;-67
2023/08/11 09:08:45;;;;;;;11.90;6.20;;;;;;;;;;5013600;28;20037;-65
2023/08/11 09:11:10;;;;;;;8.45;5.35;;;;;;;;;;5035276;28;20042;-65
2023/08/11 09:13:37;;;;;;;9.98;5.45;;;;;;;;;;5026318;28;20037;-65
2023/08/11 09:16:02;;;;;;;10.70;5.15;;;;;;;;;;4996078;28;20120;-65
2023/08/11 09:18:28;;;;;;;9.27;5.25;;;;;;;;;;4994295;28;20548;-69
2023/08/11 09:20:53;;;;;;;10.25;5.70;;;;;;;;;;4996414;28;20112;-66
2023/08/11 09:23:19;;;;;;;13.60;5.60;;;;;;;;;;4994943;28;20099;-67
2023/08/11 09:25:45;;;;;;;14.82;5.78;;;;;;;;;;4994145;28;20033;-68
2023/08/11 09:28:11;;;;;;;8.43;5.68;;;;;;;;;;4999526;28;20120;-66
2023/08/11 09:30:36;;;;;;;11.30;5.38;;;;;;;;;;4992869;28;20095;-65
2023/08/11 09:33:01;;;;;;;9.98;5.35;;;;;;;;;;5022290;28;20498;-67
2023/08/11 09:35:27;;;;;;;10.93;5.72;;;;;;;;;;4991973;28;20045;-67
2023/08/11 09:37:53;;;;;;;12.55;6.00;;;;;;;;;;4993729;28;20160;-66
2023/08/11 09:40:18;;;;;;;9.77;5.65;;;;;;;;;;4993053;28;20045;-66
2023/08/11 09:42:44;;;;;;;8.93;5.70;;;;;;;;;;4995018;28;20051;-67
2023/08/11 09:45:09;;;;;;;13.07;6.13;;;;;;;;;;5011870;28;20098;-65
2023/08/11 09:47:35;;;;;;;18.88;6.72;;;;;;;;;;5012258;28;20041;-66
2023/08/11 09:50:03;;;;;;;17.95;6.50;;;;;;;;;;5013688;28;20041;-71
2023/08/11 09:52:29;;;;;;;15.50;7.05;;;;;;;;;;5015871;28;20091;-69
2023/08/11 09:54:55;;;;;;;12.98;7.20;;;;;;;;;;5014760;28;20044;-70
2023/08/11 09:57:22;;;;;;;18.33;7.30;;;;;;;;;;5023956;28;20743;-70
2023/08/11 09:59:47;;;;;;;13.98;6.25;;;;;;;;;;5017206;28;20136;-71
2023/08/11 10:02:16;;;;;;;13.90;6.40;;;;;;;;;;5047369;28;20033;-70
2023/08/11 10:04:44;;;;;;;15.55;6.55;;;;;;;;;;5018118;28;20046;-65
2023/08/11 10:07:11;;;;;;;16.80;6.80;;;;;;;;;;5018168;28;20547;-64
2023/08/11 10:09:37;;;;;;;13.30;6.75;;;;;;;;;;5015006;28;20518;-65
2023/08/11 10:12:04;;;;;;;14.02;7.50;;;;;;;;;;5012186;28;20168;-66
2023/08/11 10:14:29;;;;;;;14.75;7.00;;;;;;;;;;5017623;28;20044;-63
2023/08/11 10:16:57;;;;;;;11.32;7.57;;;;;;;;;;5015501;28;20552;-65
2023/08/11 10:19:23;;;;;;;13.43;7.32;;;;;;;;;;5010757;28;20125;-64
2023/08/11 10:21:48;;;;;;;13.38;7.75;;;;;;;;;;5013429;28;20057;-65
2023/08/11 10:24:16;;;;;;;18.13;7.55;;;;;;;;;;5000179;28;20040;-65
2023/08/11 10:26:41;;;;;;;13.35;7.60;;;;;;;;;;5012443;28;20065;-65
2023/08/11 10:29:07;;;;;;;14.65;7.22;;;;;;;;;;5013541;28;20044;-66
2023/08/11 10:31:33;;;;;;;15.93;7.97;;;;;;;;;;5014982;28;20135;-65
2023/08/11 10:34:04;;;;;;;15.45;7.88;;;;;;;;;;5015176;28;20630;-65
2023/08/11 10:36:30;;;;;;;14.55;7.72;;;;;;;;;;5017596;28;20109;-65
2023/08/11 10:39:00;;;;;;;14.63;8.98;;;;;;;;;;5014968;28;20040;-65
2023/08/11 10:41:26;;;;;;;16.83;8.90;;;;;;;;;;5016895;28;20618;-65
2023/08/11 10:43:55;;;;;;;17.02;7.63;;;;;;;;;;5017424;28;20041;-64
2023/08/11 10:46:28;;;;;;;12.65;8.20;;;;;;;;;;5012217;28;20045;-67
2023/08/11 10:48:54;;;;;;;19.73;9.05;;;;;;;;;;5014245;28;20059;-63
2023/08/11 10:51:23;;;;;;;16.13;7.85;;;;;;;;;;5015977;28;20048;-64
2023/08/11 10:53:48;;;;;;;16.10;8.30;;;;;;;;;;5021549;28;20628;-65
2023/08/11 10:56:14;;;;;;;12.10;8.00;;;;;;;;;;5015210;28;20121;-63
2023/08/11 10:58:39;;;;;;;14.30;7.50;;;;;;;;;;5015558;28;20033;-64
2023/08/11 11:01:04;;;;;;;16.23;8.27;;;;;;;;;;5015619;28;20127;-65
2023/08/11 11:03:30;;;;;;;15.15;8.80;;;;;;;;;;5015760;28;20045;-63
2023/08/11 11:05:55;;;;;;;17.65;8.68;;;;;;;;;;5016131;28;20040;-64
2023/08/11 11:08:20;;;;;;;20.88;9.95;;;;;;;;;;5015656;28;20051;-64
2023/08/11 11:10:48;;;;;;;11.02;9.02;;;;;;;;;;5016533;28;20041;-65
2023/08/11 11:13:14;;;;;;;15.80;9.82;;;;;;;;;;5014907;28;20119;-64
2023/08/11 11:15:39;;;;;;;19.30;9.68;;;;;;;;;;5014313;28;20516;-66
2023/08/11 11:18:05;;;;;;;17.25;9.70;;;;;;;;;;5018309;28;20110;-65
2023/08/11 11:20:31;;;;;;;15.88;10.43;;;;;;;;;;5012959;28;20040;-65
2023/08/11 11:22:56;;;;;;;18.35;9.93;;;;;;;;;;5012569;28;20297;-65
2023/08/11 11:25:21;;;;;;;21.63;11.07;;;;;;;;;;5011785;28;20177;-64
2023/08/11 11:27:47;;;;;;;18.33;11.00;;;;;;;;;;5012053;28;20044;-64
2023/08/11 11:30:13;;;;;;;18.73;11.35;;;;;;;;;;5009985;28;20053;-65
2023/08/11 11:32:38;;;;;;;18.20;11.73;;;;;;;;;;5017726;28;20049;-64
2023/08/11 11:35:04;;;;;;;17.98;10.88;;;;;;;;;;5001629;28;20041;-66
2023/08/11 11:37:29;;;;;;;17.55;11.95;;;;;;;;;;4993903;28;20037;-64
2023/08/11 11:39:55;;;;;;;15.32;11.65;;;;;;;;;;5016240;28;20061;-66
2023/08/11 11:42:27;;;;;;;21.10;12.05;;;;;;;;;;4996323;28;20037;-64
2023/08/11 11:44:52;;;;;;;18.60;11.30;;;;;;;;;;4996653;28;20410;-66
2023/08/11 11:47:18;;;;;;;23.27;11.85;;;;;;;;;;4991205;28;20038;-64
2023/08/11 11:49:43;;;;;;;20.80;11.27;;;;;;;;;;4992253;28;20041;-65
2023/08/11 11:52:09;;;;;;;22.15;12.48;;;;;;;;;;4995883;28;21139;-65
2023/08/11 11:54:34;;;;;;;24.90;12.07;;;;;;;;;;4994041;28;20665;-64
2023/08/11 11:57:02;;;;;;;21.15;11.55;;;;;;;;;;4997147;28;20033;-65
2023/08/11 11:59:28;;;;;;;19.52;11.32;;;;;;;;;;4992781;28;20048;-68
2023/08/11 12:01:57;;;;;;;39.35;11.90;;;;;;;;;;4994089;28;20049;-65
2023/08/11 12:04:24;;;;;;;22.30;11.30;;;;;;;;;;4994092;28;20037;-65
2023/08/11 12:06:49;;;;;;;19.77;10.63;;;;;;;;;;4996408;28;20037;-65
2023/08/11 12:09:14;;;;;;;18.33;9.68;;;;;;;;;;4994502;28;20533;-67
2023/08/11 12:11:40;;;;;;;19.17;8.80;;;;;;;;;;4994572;28;20041;-66
2023/08/11 12:14:06;;;;;;;17.88;8.75;;;;;;;;;;4991711;28;20616;-65
2023/08/11 12:16:31;;;;;;;76.85;12.85;;;;;;;;;;4998729;28;20034;-66
2023/08/11 12:19:03;;;;;;;18.88;9.95;;;;;;;;;;4997797;28;20041;-65
2023/08/11 12:21:28;;;;;;;19.63;9.52;;;;;;;;;;4993930;28;20033;-65
2023/08/11 12:23:54;;;;;;;13.45;9.23;;;;;;;;;;4991490;28;20519;-65
2023/08/11 12:26:21;;;;;;;15.68;9.00;;;;;;;;;;4995831;28;20038;-65
2023/08/11 12:28:46;;;;;;;16.70;9.57;;;;;;;;;;4994409;28;21037;-67
2023/08/11 12:31:12;;;;;;;16.60;9.30;;;;;;;;;;4994701;28;20049;-66
2023/08/11 12:33:39;;;;;;;13.98;8.20;;;;;;;;;;4981784;28;20074;-65
2023/08/11 12:36:05;;;;;;;20.23;7.90;;;;;;;;;;4993513;28;20088;-66
2023/08/11 12:38:30;;;;;;;20.00;6.85;;;;;;;;;;4997053;28;22228;-66
2023/08/11 12:40:57;;;;;;;18.13;5.97;;;;;;;;;;4996833;28;20041;-67
2023/08/11 12:43:22;;;;;;;12.80;5.10;;;;;;;;;;4994477;28;20969;-64
2023/08/11 12:45:48;;;;;;;12.63;4.45;;;;;;;;;;4993623;28;20041;-67
2023/08/11 12:48:14;;;;;;;14.45;4.30;;;;;;;;;;4994552;28;20057;-66
2023/08/11 12:50:40;;;;;;;12.27;3.60;;;;;;;;;;4996150;28;20026;-67
2023/08/11 12:53:05;;;;;;;19.02;3.95;;;;;;;;;;5001580;28;20410;-67
2023/08/11 12:55:31;;;;;;;12.80;3.60;;;;;;;;;;4998810;28;20029;-67
2023/08/11 12:57:56;;;;;;;15.95;3.70;;;;;;;;;;4999716;28;20113;-67
2023/08/11 13:00:23;;;;;;;12.68;3.28;;;;;;;;;;5001667;28;20449;-65
2023/08/11 13:02:48;;;;;;;9.25;3.05;;;;;;;;;;4996754;28;20175;-67
2023/08/11 13:05:16;;;;;;;13.68;2.90;;;;;;;;;;5028129;28;20080;-68
2023/08/11 13:07:41;;;;;;;10.35;2.60;;;;;;;;;;4999235;28;20752;-67
2023/08/11 13:10:10;;;;;;;7.28;2.85;;;;;;;;;;4998193;28;20552;-67
2023/08/11 13:12:38;;;;;;;11.43;2.80;;;;;;;;;;4998259;28;20446;-67
2023/08/11 13:15:04;;;;;;;6.50;3.10;;;;;;;;;;4998371;28;20041;-66
2023/08/11 13:17:30;;;;;;;12.18;3.60;;;;;;;;;;4998459;28;20033;-65
2023/08/11 13:19:55;;;;;;;11.98;3.10;;;;;;;;;;4986018;28;20064;-67
2023/08/11 13:22:20;;;;;;;9.18;2.85;;;;;;;;;;5002170;28;20038;-67
2023/08/11 13:24:46;;;;;;;9.35;3.10;;;;;;;;;;4997789;28;20069;-67
2023/08/11 13:27:14;;;;;;;9.07;3.22;;;;;;;;;;5027529;28;20175;-66
2023/08/11 13:29:40;;;;;;;9.70;3.00;;;;;;;;;;4997983;28;20041;-67
2023/08/11 13:32:05;;;;;;;13.18;3.15;;;;;;;;;;4999651;28;20132;-66
2023/08/11 13:34:30;;;;;;;8.05;2.92;;;;;;;;;;4996720;28;20382;-66
2023/08/11 13:36:57;;;;;;;10.38;3.58;;;;;;;;;;4996991;28;20041;-66
2023/08/11 13:39:22;;;;;;;8.85;2.90;;;;;;;;;;4998399;28;20042;-68
2023/08/11 13:41:48;;;;;;;9.85;3.10;;;;;;;;;;4999295;28;20049;-66
2023/08/11 13:44:13;;;;;;;9.35;3.30;;;;;;;;;;5020071;28;20520;-69
2023/08/11 13:46:39;;;;;;;9.35;3.20;;;;;;;;;;4995930;28;20069;-65
2023/08/11 13:49:04;;;;;;;10.77;3.47;;;;;;;;;;4994942;28;20033;-66
2023/08/11 13:51:30;;;;;;;10.18;3.55;;;;;;;;;;4996234;28;20068;-67
2023/08/11 13:53:57;;;;;;;10.73;3.88;;;;;;;;;;4995270;28;20035;-68
2023/08/11 13:56:22;;;;;;;11.35;3.70;;;;;;;;;;4996720;28;20030;-66
2023/08/11 13:58:48;;;;;;;14.32;3.80;;;;;;;;;;5024789;28;20050;-66
2023/08/11 14:01:13;;;;;;;15.63;3.88;;;;;;;;;;4993381;28;20048;-66
2023/08/11 14:03:39;;;;;;;19.25;4.35;;;;;;;;;;4992642;28;20814;-65
2023/08/11 14:06:11;;;;;;;15.55;4.18;;;;;;;;;;4991100;28;20033;-66
2023/08/11 14:08:37;;;;;;;17.05;3.88;;;;;;;;;;4994497;28;20883;-66
2023/08/11 14:11:04;;;;;;;19.05;4.60;;;;;;;;;;4993124;28;20036;-66
2023/08/11 14:13:29;;;;;;;15.52;3.85;;;;;;;;;;4993356;28;20038;-67
2023/08/11 14:15:56;;;;;;;18.40;4.18;;;;;;;;;;5025145;28;20171;-67
2023/08/11 14:18:21;;;;;;;18.48;3.72;;;;;;;;;;5010190;28;20554;-67
2023/08/11 14:20:46;;;;;;;13.73;3.70;;;;;;;;;;5013190;28;20037;-67
2023/08/11 14:23:12;;;;;;;17.58;3.33;;;;;;;;;;5011972;28;20661;-67